sensor_id;sensor_type;location;lat;lon;timestamp;temperature;humidity
65146;DHT22;51730;56.950;24.126;2022-12-20T00:01:22;-5.00;99.90
65146;DHT22;51730;56.950;24.126;2022-12-20T00:03:51;-4.90;99.90
65146;DHT22;51730;56.950;24.126;2022-12-20T00:06:18;-4.90;99.90
65146;DHT22;51730;56.950;24.126;2022-12-20T00:08:46;-4.90;99.90
65146;DHT22;51730;56.950;24.126;2022-12-20T00:11:13;-4.90;99.90
65146;DHT22;51730;56.950;24.126;2022-12-20T00:13:40;-4.80;99.90
65146;DHT22;51730;56.950;24.126;2022-12-20T00:16:12;-4.80;99.90
65146;DHT22;51730;56.950;24.126;2022-12-20T00:18:40;-4.70;99.90
65146;DHT22;51730;56.950;24.126;2022-12-20T00:21:09;-4.70;99.90
65146;DHT22;51730;56.950;24.126;2022-12-20T00:23:37;-4.70;99.90
65146;DHT22;51730;56.950;24.126;2022-12-20T00:26:16;-4.70;99.90
65146;DHT22;51730;56.950;24.126;2022-12-20T00:28:44;-4.60;99.90
65146;DHT22;51730;56.950;24.126;2022-12-20T00:31:13;-4.50;99.90
65146;DHT22;51730;56.950;24.126;2022-12-20T00:33:43;-4.50;99.90
65146;DHT22;51730;56.950;24.126;2022-12-20T00:36:10;-4.50;99.90
65146;DHT22;51730;56.950;24.126;2022-12-20T00:38:37;-4.50;99.90
65146;DHT22;51730;56.950;24.126;2022-12-20T00:41:06;-4.50;99.90
65146;DHT22;51730;56.950;24.126;2022-12-20T00:43:33;-4.50;99.90
65146;DHT22;51730;56.950;24.126;2022-12-20T00:46:00;-4.40;99.90
65146;DHT22;51730;56.950;24.126;2022-12-20T00:48:28;-4.50;99.90
65146;DHT22;51730;56.950;24.126;2022-12-20T00:51:03;-4.40;99.90
65146;DHT22;51730;56.950;24.126;2022-12-20T00:53:30;-4.40;99.90
65146;DHT22;51730;56.950;24.126;2022-12-20T00:55:58;-4.40;99.90
65146;DHT22;51730;56.950;24.126;2022-12-20T00:58:25;-4.40;99.90
65146;DHT22;51730;56.950;24.126;2022-12-20T01:00:53;-4.30;99.90
65146;DHT22;51730;56.950;24.126;2022-12-20T01:03:23;-4.30;99.90
65146;DHT22;51730;56.950;24.126;2022-12-20T01:05:59;-4.30;99.90
65146;DHT22;51730;56.950;24.126;2022-12-20T01:08:28;-4.30;99.90
65146;DHT22;51730;56.950;24.126;2022-12-20T01:13:38;-4.30;99.90
65146;DHT22;51730;56.950;24.126;2022-12-20T01:16:13;-4.20;99.90
65146;DHT22;51730;56.950;24.126;2022-12-20T01:18:40;-4.20;99.90
65146;DHT22;51730;56.950;24.126;2022-12-20T01:21:10;-4.20;99.90
65146;DHT22;51730;56.950;24.126;2022-12-20T01:23:38;-4.10;99.90
65146;DHT22;51730;56.950;24.126;2022-12-20T01:26:08;-4.10;99.90
65146;DHT22;51730;56.950;24.126;2022-12-20T01:28:38;-4.00;99.90
65146;DHT22;51730;56.950;24.126;2022-12-20T01:31:06;-4.10;99.90
65146;DHT22;51730;56.950;24.126;2022-12-20T01:33:34;-4.10;99.90
65146;DHT22;51730;56.950;24.126;2022-12-20T01:36:05;-4.10;99.90
65146;DHT22;51730;56.950;24.126;2022-12-20T01:38:33;-4.00;99.90
65146;DHT22;51730;56.950;24.126;2022-12-20T01:41:02;-4.00;99.90
65146;DHT22;51730;56.950;24.126;2022-12-20T01:46:15;-4.00;99.90
65146;DHT22;51730;56.950;24.126;2022-12-20T01:48:47;-4.00;99.90
65146;DHT22;51730;56.950;24.126;2022-12-20T01:51:16;-3.90;99.90
65146;DHT22;51730;56.950;24.126;2022-12-20T01:53:43;-3.90;99.90
65146;DHT22;51730;56.950;24.126;2022-12-20T01:56:10;-3.90;99.90
65146;DHT22;51730;56.950;24.126;2022-12-20T01:58:38;-3.90;99.90
65146;DHT22;51730;56.950;24.126;2022-12-20T02:01:06;-4.00;99.90
65146;DHT22;51730;56.950;24.126;2022-12-20T02:03:33;-3.90;99.90
65146;DHT22;51730;56.950;24.126;2022-12-20T02:06:14;-3.80;99.90
65146;DHT22;51730;56.950;24.126;2022-12-20T02:08:42;-3.90;99.90
65146;DHT22;51730;56.950;24.126;2022-12-20T02:22:28;-3.80;99.90
65146;DHT22;51730;56.950;24.126;2022-12-20T02:25:26;-3.90;99.90
65146;DHT22;51730;56.950;24.126;2022-12-20T02:30:53;-3.80;99.90
65146;DHT22;51730;56.950;24.126;2022-12-20T02:33:23;-3.70;99.90
65146;DHT22;51730;56.950;24.126;2022-12-20T02:35:50;-3.80;99.90
65146;DHT22;51730;56.950;24.126;2022-12-20T02:43:52;-3.70;99.90
65146;DHT22;51730;56.950;24.126;2022-12-20T02:46:38;-3.70;99.90
65146;DHT22;51730;56.950;24.126;2022-12-20T02:49:12;-3.70;99.90
65146;DHT22;51730;56.950;24.126;2022-12-20T02:51:42;-3.80;99.90
65146;DHT22;51730;56.950;24.126;2022-12-20T02:54:10;-3.80;99.90
65146;DHT22;51730;56.950;24.126;2022-12-20T02:56:41;-3.70;99.90
65146;DHT22;51730;56.950;24.126;2022-12-20T02:59:22;-3.70;99.90
65146;DHT22;51730;56.950;24.126;2022-12-20T03:01:53;-3.60;99.90
65146;DHT22;51730;56.950;24.126;2022-12-20T03:04:27;-3.60;99.90
65146;DHT22;51730;56.950;24.126;2022-12-20T03:06:56;-3.60;99.90
65146;DHT22;51730;56.950;24.126;2022-12-20T03:09:23;-3.70;99.90
65146;DHT22;51730;56.950;24.126;2022-12-20T03:11:51;-3.70;99.90
65146;DHT22;51730;56.950;24.126;2022-12-20T03:14:18;-3.70;99.90
65146;DHT22;51730;56.950;24.126;2022-12-20T03:16:45;-3.60;99.90
65146;DHT22;51730;56.950;24.126;2022-12-20T03:19:12;-3.60;99.90
65146;DHT22;51730;56.950;24.126;2022-12-20T03:21:39;-3.60;99.90
65146;DHT22;51730;56.950;24.126;2022-12-20T03:24:06;-3.60;99.90
65146;DHT22;51730;56.950;24.126;2022-12-20T03:26:33;-3.50;99.90
65146;DHT22;51730;56.950;24.126;2022-12-20T03:29:00;-3.60;99.90
65146;DHT22;51730;56.950;24.126;2022-12-20T03:31:27;-3.60;99.90
65146;DHT22;51730;56.950;24.126;2022-12-20T03:33:54;-3.50;99.90
65146;DHT22;51730;56.950;24.126;2022-12-20T03:36:22;-3.50;99.90
65146;DHT22;51730;56.950;24.126;2022-12-20T03:38:51;-3.50;99.90
65146;DHT22;51730;56.950;24.126;2022-12-20T03:41:19;-3.50;99.90
65146;DHT22;51730;56.950;24.126;2022-12-20T03:43:50;-3.60;99.90
65146;DHT22;51730;56.950;24.126;2022-12-20T03:46:17;-3.60;99.90
65146;DHT22;51730;56.950;24.126;2022-12-20T03:48:44;-3.50;99.90
65146;DHT22;51730;56.950;24.126;2022-12-20T03:51:11;-3.50;99.90
65146;DHT22;51730;56.950;24.126;2022-12-20T03:53:38;-3.50;99.90
65146;DHT22;51730;56.950;24.126;2022-12-20T03:56:05;-3.50;99.90
65146;DHT22;51730;56.950;24.126;2022-12-20T03:58:32;-3.50;99.90
65146;DHT22;51730;56.950;24.126;2022-12-20T04:00:59;-3.60;99.90
65146;DHT22;51730;56.950;24.126;2022-12-20T04:03:26;-3.60;99.90
65146;DHT22;51730;56.950;24.126;2022-12-20T04:05:53;-3.60;99.90
65146;DHT22;51730;56.950;24.126;2022-12-20T04:08:20;-3.50;99.90
65146;DHT22;51730;56.950;24.126;2022-12-20T04:10:47;-3.50;99.90
65146;DHT22;51730;56.950;24.126;2022-12-20T04:16:12;-3.50;99.90
65146;DHT22;51730;56.950;24.126;2022-12-20T04:18:39;-3.60;99.90
65146;DHT22;51730;56.950;24.126;2022-12-20T04:21:08;-3.60;99.90
65146;DHT22;51730;56.950;24.126;2022-12-20T04:23:36;-3.60;99.90
65146;DHT22;51730;56.950;24.126;2022-12-20T04:26:05;-3.60;99.90
65146;DHT22;51730;56.950;24.126;2022-12-20T04:28:33;-3.60;99.90
65146;DHT22;51730;56.950;24.126;2022-12-20T04:31:00;-3.60;99.90
65146;DHT22;51730;56.950;24.126;2022-12-20T04:33:28;-3.60;99.90
65146;DHT22;51730;56.950;24.126;2022-12-20T04:35:55;-3.50;99.90
65146;DHT22;51730;56.950;24.126;2022-12-20T04:38:22;-3.60;99.90
65146;DHT22;51730;56.950;24.126;2022-12-20T04:40:53;-3.60;99.90
65146;DHT22;51730;56.950;24.126;2022-12-20T04:43:21;-3.40;99.90
65146;DHT22;51730;56.950;24.126;2022-12-20T04:45:50;-3.40;99.90
65146;DHT22;51730;56.950;24.126;2022-12-20T04:48:19;-3.40;99.90
65146;DHT22;51730;56.950;24.126;2022-12-20T04:51:06;-3.40;99.90
65146;DHT22;51730;56.950;24.126;2022-12-20T04:53:32;-3.30;99.90
65146;DHT22;51730;56.950;24.126;2022-12-20T04:56:18;-3.30;99.90
65146;DHT22;51730;56.950;24.126;2022-12-20T04:58:47;-3.40;99.90
65146;DHT22;51730;56.950;24.126;2022-12-20T05:01:14;-3.50;99.90
65146;DHT22;51730;56.950;24.126;2022-12-20T05:03:41;-3.40;99.90
65146;DHT22;51730;56.950;24.126;2022-12-20T05:06:08;-3.40;99.90
65146;DHT22;51730;56.950;24.126;2022-12-20T05:08:36;-3.40;99.90
65146;DHT22;51730;56.950;24.126;2022-12-20T05:11:04;-3.50;99.90
65146;DHT22;51730;56.950;24.126;2022-12-20T05:13:32;-3.50;99.90
65146;DHT22;51730;56.950;24.126;2022-12-20T05:15:59;-3.50;99.90
65146;DHT22;51730;56.950;24.126;2022-12-20T05:18:27;-3.40;99.90
65146;DHT22;51730;56.950;24.126;2022-12-20T05:20:56;-3.50;99.90
65146;DHT22;51730;56.950;24.126;2022-12-20T05:23:41;-3.40;99.90
65146;DHT22;51730;56.950;24.126;2022-12-20T05:26:30;-3.40;99.90
65146;DHT22;51730;56.950;24.126;2022-12-20T05:28:58;-3.40;99.90
65146;DHT22;51730;56.950;24.126;2022-12-20T05:31:24;-3.40;99.90
65146;DHT22;51730;56.950;24.126;2022-12-20T05:33:51;-3.40;99.90
65146;DHT22;51730;56.950;24.126;2022-12-20T05:36:20;-3.40;99.90
65146;DHT22;51730;56.950;24.126;2022-12-20T05:38:47;-3.30;99.90
65146;DHT22;51730;56.950;24.126;2022-12-20T05:41:14;-3.40;99.90
65146;DHT22;51730;56.950;24.126;2022-12-20T05:43:41;-3.40;99.90
65146;DHT22;51730;56.950;24.126;2022-12-20T05:46:10;-3.40;99.90
65146;DHT22;51730;56.950;24.126;2022-12-20T05:48:37;-3.40;99.90
65146;DHT22;51730;56.950;24.126;2022-12-20T05:51:04;-3.30;99.90
65146;DHT22;51730;56.950;24.126;2022-12-20T05:53:31;-3.40;99.90
65146;DHT22;51730;56.950;24.126;2022-12-20T05:55:58;-3.30;99.90
65146;DHT22;51730;56.950;24.126;2022-12-20T05:58:25;-3.30;99.90
65146;DHT22;51730;56.950;24.126;2022-12-20T06:00:52;-3.20;99.90
65146;DHT22;51730;56.950;24.126;2022-12-20T06:03:19;-3.30;99.90
65146;DHT22;51730;56.950;24.126;2022-12-20T06:05:46;-3.30;99.90
65146;DHT22;51730;56.950;24.126;2022-12-20T06:08:13;-3.20;99.90
65146;DHT22;51730;56.950;24.126;2022-12-20T06:10:40;-3.20;99.90
65146;DHT22;51730;56.950;24.126;2022-12-20T06:13:08;-3.20;99.90
65146;DHT22;51730;56.950;24.126;2022-12-20T06:15:36;-3.20;99.90
65146;DHT22;51730;56.950;24.126;2022-12-20T06:18:04;-3.10;99.90
65146;DHT22;51730;56.950;24.126;2022-12-20T06:20:32;-3.10;99.90
65146;DHT22;51730;56.950;24.126;2022-12-20T06:23:00;-3.10;99.90
65146;DHT22;51730;56.950;24.126;2022-12-20T06:25:28;-3.10;99.90
65146;DHT22;51730;56.950;24.126;2022-12-20T06:27:55;-3.10;99.90
65146;DHT22;51730;56.950;24.126;2022-12-20T06:30:22;-3.10;99.90
65146;DHT22;51730;56.950;24.126;2022-12-20T06:32:55;-3.00;99.90
65146;DHT22;51730;56.950;24.126;2022-12-20T06:35:22;-3.00;99.90
65146;DHT22;51730;56.950;24.126;2022-12-20T06:37:49;-3.00;99.90
65146;DHT22;51730;56.950;24.126;2022-12-20T06:40:17;-3.00;99.90
65146;DHT22;51730;56.950;24.126;2022-12-20T06:42:43;-3.00;99.90
65146;DHT22;51730;56.950;24.126;2022-12-20T06:45:11;-3.00;99.90
65146;DHT22;51730;56.950;24.126;2022-12-20T06:47:37;-2.90;99.90
65146;DHT22;51730;56.950;24.126;2022-12-20T06:50:05;-3.00;99.90
65146;DHT22;51730;56.950;24.126;2022-12-20T06:52:32;-3.00;99.90
65146;DHT22;51730;56.950;24.126;2022-12-20T06:54:59;-3.00;99.90
65146;DHT22;51730;56.950;24.126;2022-12-20T06:57:26;-3.00;99.90
65146;DHT22;51730;56.950;24.126;2022-12-20T06:59:53;-3.00;99.90
65146;DHT22;51730;56.950;24.126;2022-12-20T07:02:20;-3.00;99.90
65146;DHT22;51730;56.950;24.126;2022-12-20T07:04:47;-2.90;99.90
65146;DHT22;51730;56.950;24.126;2022-12-20T07:07:14;-2.90;99.90
65146;DHT22;51730;56.950;24.126;2022-12-20T07:09:40;-2.80;99.90
65146;DHT22;51730;56.950;24.126;2022-12-20T07:12:08;-2.80;99.90
65146;DHT22;51730;56.950;24.126;2022-12-20T07:14:35;-2.90;99.90
65146;DHT22;51730;56.950;24.126;2022-12-20T07:17:04;-2.80;99.90
65146;DHT22;51730;56.950;24.126;2022-12-20T07:19:31;-2.80;99.90
65146;DHT22;51730;56.950;24.126;2022-12-20T07:21:58;-2.80;99.90
65146;DHT22;51730;56.950;24.126;2022-12-20T07:24:25;-2.80;99.90
65146;DHT22;51730;56.950;24.126;2022-12-20T07:26:52;-2.80;99.90
65146;DHT22;51730;56.950;24.126;2022-12-20T07:29:19;-2.70;99.90
65146;DHT22;51730;56.950;24.126;2022-12-20T07:31:46;-2.70;99.90
65146;DHT22;51730;56.950;24.126;2022-12-20T07:34:14;-2.70;99.90
65146;DHT22;51730;56.950;24.126;2022-12-20T07:36:41;-2.60;99.90
65146;DHT22;51730;56.950;24.126;2022-12-20T07:39:09;-2.60;99.90
65146;DHT22;51730;56.950;24.126;2022-12-20T07:41:36;-2.60;99.90
65146;DHT22;51730;56.950;24.126;2022-12-20T07:44:03;-2.50;99.90
65146;DHT22;51730;56.950;24.126;2022-12-20T07:46:32;-2.50;99.90
65146;DHT22;51730;56.950;24.126;2022-12-20T07:48:59;-2.50;99.90
65146;DHT22;51730;56.950;24.126;2022-12-20T07:51:37;-2.50;99.90
65146;DHT22;51730;56.950;24.126;2022-12-20T07:54:10;-2.50;99.90
65146;DHT22;51730;56.950;24.126;2022-12-20T07:56:42;-2.50;99.90
65146;DHT22;51730;56.950;24.126;2022-12-20T07:59:13;-2.40;99.90
65146;DHT22;51730;56.950;24.126;2022-12-20T08:01:42;-2.40;99.90
65146;DHT22;51730;56.950;24.126;2022-12-20T08:04:17;-2.30;99.90
65146;DHT22;51730;56.950;24.126;2022-12-20T08:06:44;-2.40;99.90
65146;DHT22;51730;56.950;24.126;2022-12-20T08:09:13;-2.30;99.90
65146;DHT22;51730;56.950;24.126;2022-12-20T08:11:43;-2.30;99.90
65146;DHT22;51730;56.950;24.126;2022-12-20T08:14:10;-2.30;99.90
65146;DHT22;51730;56.950;24.126;2022-12-20T08:16:37;-2.20;99.90
65146;DHT22;51730;56.950;24.126;2022-12-20T08:19:05;-2.20;99.90
65146;DHT22;51730;56.950;24.126;2022-12-20T08:21:32;-2.20;99.90
65146;DHT22;51730;56.950;24.126;2022-12-20T08:23:59;-2.20;99.90
65146;DHT22;51730;56.950;24.126;2022-12-20T08:26:26;-2.20;99.90
65146;DHT22;51730;56.950;24.126;2022-12-20T08:28:54;-2.10;99.90
65146;DHT22;51730;56.950;24.126;2022-12-20T08:31:22;-2.10;99.90
65146;DHT22;51730;56.950;24.126;2022-12-20T08:33:53;-2.10;99.90
65146;DHT22;51730;56.950;24.126;2022-12-20T08:36:20;-2.10;99.90
65146;DHT22;51730;56.950;24.126;2022-12-20T08:38:47;-2.00;99.90
65146;DHT22;51730;56.950;24.126;2022-12-20T08:41:15;-1.90;99.90
65146;DHT22;51730;56.950;24.126;2022-12-20T08:43:42;-1.90;99.90
65146;DHT22;51730;56.950;24.126;2022-12-20T08:46:10;-1.80;99.90
65146;DHT22;51730;56.950;24.126;2022-12-20T08:48:38;-1.80;99.90
65146;DHT22;51730;56.950;24.126;2022-12-20T08:51:07;-1.80;99.90
65146;DHT22;51730;56.950;24.126;2022-12-20T08:53:36;-1.80;99.90
65146;DHT22;51730;56.950;24.126;2022-12-20T08:56:05;-1.70;99.90
65146;DHT22;51730;56.950;24.126;2022-12-20T08:58:33;-1.80;99.90
65146;DHT22;51730;56.950;24.126;2022-12-20T09:01:02;-1.80;99.90
65146;DHT22;51730;56.950;24.126;2022-12-20T09:03:33;-1.70;99.90
65146;DHT22;51730;56.950;24.126;2022-12-20T09:06:13;-1.70;99.90
65146;DHT22;51730;56.950;24.126;2022-12-20T09:08:40;-1.70;99.90
65146;DHT22;51730;56.950;24.126;2022-12-20T09:11:19;-1.60;99.90
65146;DHT22;51730;56.950;24.126;2022-12-20T09:13:48;-1.60;99.90
65146;DHT22;51730;56.950;24.126;2022-12-20T09:16:17;-1.50;99.90
65146;DHT22;51730;56.950;24.126;2022-12-20T09:18:53;-1.50;99.90
65146;DHT22;51730;56.950;24.126;2022-12-20T09:21:30;-1.40;99.90
65146;DHT22;51730;56.950;24.126;2022-12-20T09:23:57;-1.40;99.90
65146;DHT22;51730;56.950;24.126;2022-12-20T09:26:24;-1.40;99.90
65146;DHT22;51730;56.950;24.126;2022-12-20T09:28:51;-1.40;99.90
65146;DHT22;51730;56.950;24.126;2022-12-20T09:31:21;-1.40;99.90
65146;DHT22;51730;56.950;24.126;2022-12-20T09:33:48;-1.40;99.90
65146;DHT22;51730;56.950;24.126;2022-12-20T09:36:17;-1.40;99.90
65146;DHT22;51730;56.950;24.126;2022-12-20T09:38:45;-1.40;99.90
65146;DHT22;51730;56.950;24.126;2022-12-20T09:41:38;-1.40;99.90
65146;DHT22;51730;56.950;24.126;2022-12-20T09:44:41;-1.30;99.90
65146;DHT22;51730;56.950;24.126;2022-12-20T09:47:20;-1.30;99.90
65146;DHT22;51730;56.950;24.126;2022-12-20T09:49:50;-1.30;99.90
65146;DHT22;51730;56.950;24.126;2022-12-20T10:00:45;-1.20;99.90
65146;DHT22;51730;56.950;24.126;2022-12-20T10:03:27;-1.10;99.90
65146;DHT22;51730;56.950;24.126;2022-12-20T10:05:58;-1.10;99.90
65146;DHT22;51730;56.950;24.126;2022-12-20T10:16:52;-0.90;99.90
65146;DHT22;51730;56.950;24.126;2022-12-20T10:27:40;-0.80;99.90
65146;DHT22;51730;56.950;24.126;2022-12-20T10:30:15;-0.80;99.90
65146;DHT22;51730;56.950;24.126;2022-12-20T10:32:46;-0.80;99.90
65146;DHT22;51730;56.950;24.126;2022-12-20T10:43:22;-0.60;99.90
65146;DHT22;51730;56.950;24.126;2022-12-20T10:46:01;-0.60;99.90
65146;DHT22;51730;56.950;24.126;2022-12-20T10:53:59;-0.40;99.90
65146;DHT22;51730;56.950;24.126;2022-12-20T10:56:33;-0.40;99.90
65146;DHT22;51730;56.950;24.126;2022-12-20T11:01:48;-0.40;99.90
65146;DHT22;51730;56.950;24.126;2022-12-20T11:06:55;-0.30;99.90
65146;DHT22;51730;56.950;24.126;2022-12-20T11:09:34;-0.30;99.90
65146;DHT22;51730;56.950;24.126;2022-12-20T11:12:11;-0.20;99.90
65146;DHT22;51730;56.950;24.126;2022-12-20T11:14:40;-0.20;99.90
65146;DHT22;51730;56.950;24.126;2022-12-20T11:26:14;-0.10;99.90
65146;DHT22;51730;56.950;24.126;2022-12-20T11:32:14;0.00;99.90
65146;DHT22;51730;56.950;24.126;2022-12-20T11:37:44;0.00;99.90
65146;DHT22;51730;56.950;24.126;2022-12-20T11:40:26;0.00;99.90
65146;DHT22;51730;56.950;24.126;2022-12-20T11:43:11;0.00;99.90
65146;DHT22;51730;56.950;24.126;2022-12-20T11:46:18;0.00;99.90
65146;DHT22;51730;56.950;24.126;2022-12-20T11:49:41;0.10;99.90
65146;DHT22;51730;56.950;24.126;2022-12-20T11:51:47;0.10;99.90
65146;DHT22;51730;56.950;24.126;2022-12-20T11:56:43;0.10;99.90
65146;DHT22;51730;56.950;24.126;2022-12-20T12:02:04;0.20;99.90
65146;DHT22;51730;56.950;24.126;2022-12-20T12:04:49;0.20;99.90
65146;DHT22;51730;56.950;24.126;2022-12-20T12:07:41;0.20;99.90
65146;DHT22;51730;56.950;24.126;2022-12-20T12:10:24;0.30;99.90
65146;DHT22;51730;56.950;24.126;2022-12-20T12:13:10;0.30;99.90
65146;DHT22;51730;56.950;24.126;2022-12-20T12:18:21;0.30;99.90
65146;DHT22;51730;56.950;24.126;2022-12-20T12:24:04;0.40;99.90
65146;DHT22;51730;56.950;24.126;2022-12-20T12:26:37;0.40;99.90
65146;DHT22;51730;56.950;24.126;2022-12-20T12:29:14;0.50;99.90
65146;DHT22;51730;56.950;24.126;2022-12-20T12:32:03;0.50;99.90
65146;DHT22;51730;56.950;24.126;2022-12-20T12:34:51;0.60;99.90
65146;DHT22;51730;56.950;24.126;2022-12-20T12:50:47;0.60;99.90
65146;DHT22;51730;56.950;24.126;2022-12-20T12:53:41;0.60;99.90
65146;DHT22;51730;56.950;24.126;2022-12-20T13:17:50;0.80;99.90
65146;DHT22;51730;56.950;24.126;2022-12-20T13:20:32;0.80;99.90
65146;DHT22;51730;56.950;24.126;2022-12-20T13:33:45;0.90;99.90
65146;DHT22;51730;56.950;24.126;2022-12-20T13:43:50;0.90;99.90
65146;DHT22;51730;56.950;24.126;2022-12-20T13:46:26;0.90;99.90
65146;DHT22;51730;56.950;24.126;2022-12-20T13:49:04;1.00;99.90
65146;DHT22;51730;56.950;24.126;2022-12-20T13:51:36;1.00;99.90
65146;DHT22;51730;56.950;24.126;2022-12-20T13:54:13;1.00;99.90
65146;DHT22;51730;56.950;24.126;2022-12-20T13:56:50;1.00;99.90
65146;DHT22;51730;56.950;24.126;2022-12-20T13:59:23;1.00;99.90
65146;DHT22;51730;56.950;24.126;2022-12-20T14:01:59;1.00;99.90
65146;DHT22;51730;56.950;24.126;2022-12-20T14:04:39;1.00;99.90
65146;DHT22;51730;56.950;24.126;2022-12-20T14:07:11;1.00;99.90
65146;DHT22;51730;56.950;24.126;2022-12-20T14:09:43;1.00;99.90
65146;DHT22;51730;56.950;24.126;2022-12-20T14:12:15;1.00;99.90
65146;DHT22;51730;56.950;24.126;2022-12-20T14:14:53;1.10;99.90
65146;DHT22;51730;56.950;24.126;2022-12-20T14:22:36;1.10;99.90
65146;DHT22;51730;56.950;24.126;2022-12-20T14:25:05;1.10;99.90
65146;DHT22;51730;56.950;24.126;2022-12-20T14:27:35;1.10;99.90
65146;DHT22;51730;56.950;24.126;2022-12-20T14:30:04;1.10;99.90
65146;DHT22;51730;56.950;24.126;2022-12-20T14:32:31;1.10;99.90
65146;DHT22;51730;56.950;24.126;2022-12-20T14:34:58;1.10;99.90
65146;DHT22;51730;56.950;24.126;2022-12-20T14:37:31;1.10;99.90
65146;DHT22;51730;56.950;24.126;2022-12-20T14:42:37;1.10;99.90
65146;DHT22;51730;56.950;24.126;2022-12-20T14:45:25;1.10;99.90
65146;DHT22;51730;56.950;24.126;2022-12-20T14:48:04;1.20;99.90
65146;DHT22;51730;56.950;24.126;2022-12-20T14:50:37;1.20;99.90
65146;DHT22;51730;56.950;24.126;2022-12-20T14:53:21;1.20;99.90
65146;DHT22;51730;56.950;24.126;2022-12-20T14:55:50;1.20;99.90
65146;DHT22;51730;56.950;24.126;2022-12-20T14:58:29;1.20;99.90
65146;DHT22;51730;56.950;24.126;2022-12-20T15:01:12;1.20;99.90
65146;DHT22;51730;56.950;24.126;2022-12-20T15:03:54;1.20;99.90
65146;DHT22;51730;56.950;24.126;2022-12-20T15:08:58;1.20;99.90
65146;DHT22;51730;56.950;24.126;2022-12-20T15:11:25;1.30;99.90
65146;DHT22;51730;56.950;24.126;2022-12-20T15:13:53;1.20;99.90
65146;DHT22;51730;56.950;24.126;2022-12-20T15:18:50;1.20;99.90
65146;DHT22;51730;56.950;24.126;2022-12-20T15:21:34;1.30;99.90
65146;DHT22;51730;56.950;24.126;2022-12-20T15:24:07;1.30;99.90
65146;DHT22;51730;56.950;24.126;2022-12-20T15:26:35;1.30;99.90
65146;DHT22;51730;56.950;24.126;2022-12-20T15:29:02;1.30;99.90
65146;DHT22;51730;56.950;24.126;2022-12-20T15:31:32;1.30;99.90
65146;DHT22;51730;56.950;24.126;2022-12-20T15:34:03;1.30;99.90
65146;DHT22;51730;56.950;24.126;2022-12-20T15:36:33;1.30;99.90
65146;DHT22;51730;56.950;24.126;2022-12-20T15:39:00;1.30;99.90
65146;DHT22;51730;56.950;24.126;2022-12-20T15:41:45;1.30;99.90
65146;DHT22;51730;56.950;24.126;2022-12-20T15:44:18;1.30;99.90
65146;DHT22;51730;56.950;24.126;2022-12-20T15:46:46;1.40;99.90
65146;DHT22;51730;56.950;24.126;2022-12-20T15:49:16;1.40;99.90
65146;DHT22;51730;56.950;24.126;2022-12-20T15:51:44;1.40;99.90
65146;DHT22;51730;56.950;24.126;2022-12-20T15:56:50;1.40;99.90
65146;DHT22;51730;56.950;24.126;2022-12-20T15:59:17;1.40;99.90
65146;DHT22;51730;56.950;24.126;2022-12-20T16:02:27;1.40;99.90
65146;DHT22;51730;56.950;24.126;2022-12-20T16:04:55;1.40;99.90
65146;DHT22;51730;56.950;24.126;2022-12-20T16:07:23;1.40;99.90
65146;DHT22;51730;56.950;24.126;2022-12-20T16:09:50;1.40;99.90
65146;DHT22;51730;56.950;24.126;2022-12-20T16:12:20;1.40;99.90
65146;DHT22;51730;56.950;24.126;2022-12-20T16:14:48;1.50;99.90
65146;DHT22;51730;56.950;24.126;2022-12-20T16:17:15;1.40;99.90
65146;DHT22;51730;56.950;24.126;2022-12-20T16:19:42;1.50;99.90
65146;DHT22;51730;56.950;24.126;2022-12-20T16:22:20;1.50;99.90
65146;DHT22;51730;56.950;24.126;2022-12-20T16:24:51;1.50;99.90
65146;DHT22;51730;56.950;24.126;2022-12-20T16:27:18;1.50;99.90
65146;DHT22;51730;56.950;24.126;2022-12-20T16:29:46;1.50;99.90
65146;DHT22;51730;56.950;24.126;2022-12-20T16:32:18;1.50;99.90
65146;DHT22;51730;56.950;24.126;2022-12-20T16:34:45;1.50;99.90
65146;DHT22;51730;56.950;24.126;2022-12-20T16:37:12;1.50;99.90
65146;DHT22;51730;56.950;24.126;2022-12-20T16:39:40;1.50;99.90
65146;DHT22;51730;56.950;24.126;2022-12-20T16:42:15;1.60;99.90
65146;DHT22;51730;56.950;24.126;2022-12-20T16:44:43;1.60;99.90
65146;DHT22;51730;56.950;24.126;2022-12-20T16:47:12;1.60;99.90
65146;DHT22;51730;56.950;24.126;2022-12-20T16:49:40;1.60;99.90
65146;DHT22;51730;56.950;24.126;2022-12-20T16:52:18;1.60;99.90
65146;DHT22;51730;56.950;24.126;2022-12-20T16:54:45;1.60;99.90
65146;DHT22;51730;56.950;24.126;2022-12-20T16:57:12;1.60;99.90
65146;DHT22;51730;56.950;24.126;2022-12-20T16:59:39;1.60;99.90
65146;DHT22;51730;56.950;24.126;2022-12-20T17:02:24;1.60;99.90
65146;DHT22;51730;56.950;24.126;2022-12-20T17:04:52;1.60;99.90
65146;DHT22;51730;56.950;24.126;2022-12-20T17:07:19;1.60;99.90
65146;DHT22;51730;56.950;24.126;2022-12-20T17:09:46;1.70;99.90
65146;DHT22;51730;56.950;24.126;2022-12-20T17:12:30;1.70;99.90
65146;DHT22;51730;56.950;24.126;2022-12-20T17:14:57;1.80;99.90
65146;DHT22;51730;56.950;24.126;2022-12-20T17:17:24;1.70;99.90
65146;DHT22;51730;56.950;24.126;2022-12-20T17:19:51;1.80;99.90
65146;DHT22;51730;56.950;24.126;2022-12-20T17:22:18;1.80;99.90
65146;DHT22;51730;56.950;24.126;2022-12-20T17:24:50;1.80;99.90
65146;DHT22;51730;56.950;24.126;2022-12-20T17:27:17;1.80;99.90
65146;DHT22;51730;56.950;24.126;2022-12-20T17:29:44;1.80;99.90
65146;DHT22;51730;56.950;24.126;2022-12-20T17:32:21;1.80;99.90
65146;DHT22;51730;56.950;24.126;2022-12-20T17:34:49;1.80;99.90
65146;DHT22;51730;56.950;24.126;2022-12-20T17:37:16;1.80;99.90
65146;DHT22;51730;56.950;24.126;2022-12-20T17:39:43;1.80;99.90
65146;DHT22;51730;56.950;24.126;2022-12-20T17:42:13;1.80;99.90
65146;DHT22;51730;56.950;24.126;2022-12-20T17:44:41;1.90;99.90
65146;DHT22;51730;56.950;24.126;2022-12-20T17:47:08;1.90;99.90
65146;DHT22;51730;56.950;24.126;2022-12-20T17:49:37;1.80;99.90
65146;DHT22;51730;56.950;24.126;2022-12-20T17:52:04;1.80;99.90
65146;DHT22;51730;56.950;24.126;2022-12-20T17:54:31;1.90;99.90
65146;DHT22;51730;56.950;24.126;2022-12-20T17:57:05;1.90;99.90
65146;DHT22;51730;56.950;24.126;2022-12-20T17:59:36;1.80;99.90
65146;DHT22;51730;56.950;24.126;2022-12-20T18:02:20;1.90;99.90
65146;DHT22;51730;56.950;24.126;2022-12-20T18:04:48;1.90;99.90
65146;DHT22;51730;56.950;24.126;2022-12-20T18:07:15;1.90;99.90
65146;DHT22;51730;56.950;24.126;2022-12-20T18:09:45;1.90;99.90
65146;DHT22;51730;56.950;24.126;2022-12-20T18:12:12;1.90;99.90
65146;DHT22;51730;56.950;24.126;2022-12-20T18:14:39;1.90;99.90
65146;DHT22;51730;56.950;24.126;2022-12-20T18:17:06;1.90;99.90
65146;DHT22;51730;56.950;24.126;2022-12-20T18:19:33;1.90;99.90
65146;DHT22;51730;56.950;24.126;2022-12-20T18:22:00;1.90;99.90
65146;DHT22;51730;56.950;24.126;2022-12-20T18:24:27;1.90;99.90
65146;DHT22;51730;56.950;24.126;2022-12-20T18:26:54;1.90;99.90
65146;DHT22;51730;56.950;24.126;2022-12-20T18:29:21;1.90;99.90